Time;durP1;ratioP1;P1;durP2;ratioP2;P2;SDS_P1;SDS_P2;PMS_P1;PMS_P2;Temp;Humidity;BMP_temperature;BMP_pressure;BME280_temperature;BME280_humidity;BME280_pressure;Samples;Min_cycle;Max_cycle;Signal;HPM_P1;HPM_P2
2023/02/09 00:02:12;;;;;;;142.70;58.80;;;;;;;-4.29;81.34;102655.52;106781;1272;22590;-54
2023/02/09 00:04:43;;;;;;;144.60;60.40;;;;;;;-4.29;81.37;102651.98;106849;1265;25477;-56
2023/02/09 00:07:14;;;;;;;159.10;66.00;;;;;;;-4.29;81.37;102646.79;106861;1268;24433;-59
2023/02/09 00:09:45;;;;;;;158.10;65.40;;;;;;;-4.29;81.44;102641.59;106804;1259;22652;-55
2023/02/09 00:15:07;;;;;;;176.90;72.30;;;;;;;-4.31;81.01;102631.81;106795;1258;22634;-56
2023/02/09 00:17:38;;;;;;;170.00;71.40;;;;;;;-4.34;81.04;102633.48;106762;1271;24359;-53
2023/02/09 00:20:11;;;;;;;165.70;70.40;;;;;;;-4.36;81.24;102630.11;106788;1257;22692;-55
2023/02/09 00:22:42;;;;;;;170.70;72.40;;;;;;;-4.36;81.42;102628.31;106892;1272;22560;-55
2023/02/09 00:25:13;;;;;;;182.90;71.30;;;;;;;-4.37;81.47;102621.70;106765;1255;25645;-57
2023/02/09 00:27:44;;;;;;;172.60;71.00;;;;;;;-4.39;81.69;102625.88;106754;1268;22556;-54
2023/02/09 00:30:16;;;;;;;168.60;69.60;;;;;;;-4.40;81.61;102627.07;106838;1258;22561;-58
2023/02/09 00:32:47;;;;;;;160.00;66.00;;;;;;;-4.43;81.75;102623.55;106998;1268;25522;-57
2023/02/09 00:35:19;;;;;;;161.50;68.30;;;;;;;-4.45;81.75;102620.35;106841;1266;22708;-56
2023/02/09 00:37:50;;;;;;;164.10;68.10;;;;;;;-4.46;81.88;102612.52;106824;1272;22709;-57
2023/02/09 00:40:21;;;;;;;170.70;70.30;;;;;;;-4.46;82.06;102607.45;106873;1260;22641;-53
2023/02/09 00:42:52;;;;;;;164.70;68.90;;;;;;;-4.47;82.17;102599.23;107144;1268;23093;-54
2023/02/09 00:45:23;;;;;;;168.90;69.30;;;;;;;-4.48;82.28;102591.29;106781;1271;22811;-53
2023/02/09 00:47:54;;;;;;;170.60;72.30;;;;;;;-4.50;82.39;102585.07;106733;1271;24437;-55
2023/02/09 00:50:25;;;;;;;155.30;64.60;;;;;;;-4.50;82.43;102581.91;106751;1271;24359;-57
2023/02/09 00:52:56;;;;;;;163.70;68.40;;;;;;;-4.51;82.40;102582.98;106838;1272;22801;-56
2023/02/09 00:55:28;;;;;;;156.60;65.70;;;;;;;-4.50;82.56;102578.73;106726;1265;24173;-57
2023/02/09 00:57:58;;;;;;;166.50;68.70;;;;;;;-4.50;82.56;102578.75;106821;1271;22586;-56
2023/02/09 01:00:29;;;;;;;160.10;64.30;;;;;;;-4.50;82.58;102573.73;106733;1257;22588;-57
2023/02/09 01:03:01;;;;;;;157.00;65.20;;;;;;;-4.48;82.55;102572.04;106817;1257;24370;-58
2023/02/09 01:05:32;;;;;;;154.30;63.40;;;;;;;-4.49;82.62;102575.89;106765;1271;26803;-55
2023/02/09 01:08:03;;;;;;;151.10;62.40;;;;;;;-4.51;82.63;102576.85;106897;1272;23189;-55
2023/02/09 01:10:34;;;;;;;155.20;65.60;;;;;;;-4.50;82.68;102577.49;106935;1254;22732;-54
2023/02/09 01:13:05;;;;;;;166.50;67.10;;;;;;;-4.49;82.72;102578.17;106770;1269;22714;-54
2023/02/09 01:15:38;;;;;;;165.40;68.00;;;;;;;-4.49;82.68;102575.77;106769;1265;22611;-53
2023/02/09 01:18:11;;;;;;;169.70;66.10;;;;;;;-4.49;82.73;102578.08;106758;1265;24232;-57
2023/02/09 01:20:43;;;;;;;162.90;70.10;;;;;;;-4.50;82.79;102575.96;106746;1268;22644;-53
2023/02/09 01:23:17;;;;;;;166.00;73.70;;;;;;;-4.50;82.75;102578.45;106864;1257;24233;-58
2023/02/09 01:25:48;;;;;;;189.50;74.90;;;;;;;-4.52;82.80;102577.98;106826;1272;22764;-53
2023/02/09 01:28:19;;;;;;;171.60;72.00;;;;;;;-4.53;82.81;102580.31;106821;1271;22611;-55
2023/02/09 01:30:50;;;;;;;166.30;68.70;;;;;;;-4.55;82.88;102577.52;106778;1261;22983;-58
2023/02/09 01:33:21;;;;;;;161.80;68.00;;;;;;;-4.56;82.83;102572.79;106793;1250;22802;-58
2023/02/09 01:35:56;;;;;;;153.40;66.70;;;;;;;-4.59;82.95;102566.66;106744;1260;22576;-56
2023/02/09 01:38:27;;;;;;;155.80;65.70;;;;;;;-4.59;82.97;102558.71;106726;1257;22606;-58
2023/02/09 01:40:58;;;;;;;152.60;61.00;;;;;;;-4.60;83.05;102560.44;106773;1254;24042;-56
2023/02/09 01:43:28;;;;;;;156.80;65.90;;;;;;;-4.62;83.07;102552.36;106740;1272;25529;-55
2023/02/09 01:46:00;;;;;;;158.60;66.50;;;;;;;-4.61;83.22;102549.81;106726;1271;24194;-56
2023/02/09 01:48:32;;;;;;;166.20;66.10;;;;;;;-4.61;83.20;102543.66;106852;1256;22650;-54
2023/02/09 01:51:03;;;;;;;149.90;64.00;;;;;;;-4.60;83.20;102542.61;106761;1271;24250;-57
2023/02/09 01:53:35;;;;;;;168.00;65.50;;;;;;;-4.61;83.24;102536.12;106911;1263;25467;-57
2023/02/09 01:56:11;;;;;;;161.90;66.70;;;;;;;-4.62;83.19;102532.35;106867;1272;22695;-59
2023/02/09 01:58:42;;;;;;;154.20;65.80;;;;;;;-4.62;83.11;102531.98;106931;1272;22552;-56
2023/02/09 02:01:14;;;;;;;159.00;65.10;;;;;;;-4.63;83.15;102530.48;106924;1249;22791;-56
2023/02/09 02:03:46;;;;;;;160.30;65.30;;;;;;;-4.63;83.14;102527.82;106928;1260;24096;-56
2023/02/09 02:06:19;;;;;;;161.60;67.10;;;;;;;-4.65;83.13;102522.25;106875;1259;22568;-55
2023/02/09 02:08:56;;;;;;;154.60;64.80;;;;;;;-4.65;83.14;102520.96;106809;1269;22682;-56
2023/02/09 02:11:28;;;;;;;151.30;63.40;;;;;;;-4.67;83.23;102526.35;106783;1265;22604;-54
2023/02/09 02:13:59;;;;;;;150.60;64.10;;;;;;;-4.69;83.15;102526.86;106992;1272;28208;-55
2023/02/09 02:16:45;;;;;;;157.80;64.80;;;;;;;-4.70;83.12;102529.46;106760;1268;26026;-56
2023/02/09 02:20:04;;;;;;;142.00;62.20;;;;;;;-4.70;83.25;102529.91;107002;1265;25464;-56
2023/02/09 02:22:57;;;;;;;151.20;61.70;;;;;;;-4.70;83.38;102522.64;106873;1265;24221;-53
2023/02/09 02:26:03;;;;;;;142.90;59.10;;;;;;;-4.73;83.32;102524.48;106800;1258;22780;-57
2023/02/09 02:28:44;;;;;;;156.70;60.40;;;;;;;-4.74;83.50;102516.39;106918;1258;24257;-55
2023/02/09 02:31:45;;;;;;;139.80;57.00;;;;;;;-4.75;83.52;102514.23;106764;1272;219353;-53
2023/02/09 02:34:25;;;;;;;143.60;60.20;;;;;;;-4.76;83.67;102515.52;106808;1268;24246;-56
2023/02/09 02:37:09;;;;;;;145.10;61.00;;;;;;;-4.77;83.53;102510.10;106828;1269;23940;-58
2023/02/09 02:39:49;;;;;;;148.70;60.30;;;;;;;-4.78;83.62;102504.91;106872;1261;24792;-55
2023/02/09 02:42:48;;;;;;;152.10;61.20;;;;;;;-4.79;83.58;102497.05;106855;1265;22543;-56
2023/02/09 02:45:29;;;;;;;153.60;60.40;;;;;;;-4.82;83.56;102492.55;106775;1265;24201;-56
2023/02/09 02:48:05;;;;;;;152.70;66.50;;;;;;;-4.83;83.41;102490.58;106745;1272;25319;-55
2023/02/09 02:50:40;;;;;;;149.30;59.20;;;;;;;-4.85;83.52;102484.05;106835;1272;22537;-57
2023/02/09 02:53:15;;;;;;;150.40;64.10;;;;;;;-4.87;83.52;102477.34;106766;1258;24042;-56
2023/02/09 02:55:49;;;;;;;159.10;67.00;;;;;;;-4.88;83.63;102477.43;106835;1265;24217;-57
2023/02/09 02:58:24;;;;;;;170.30;66.50;;;;;;;-4.87;83.70;102473.10;106744;1266;25496;-54
2023/02/09 03:00:59;;;;;;;169.60;66.00;;;;;;;-4.86;83.54;102467.70;106894;1250;23012;-57
2023/02/09 03:03:34;;;;;;;159.70;64.30;;;;;;;-4.88;83.47;102464.35;106800;1271;23022;-54
2023/02/09 03:06:07;;;;;;;157.40;66.70;;;;;;;-4.89;83.40;102460.71;106798;1256;22639;-57
2023/02/09 03:08:50;;;;;;;156.00;62.70;;;;;;;-4.90;83.37;102461.00;106829;1265;22578;-56
2023/02/09 03:11:24;;;;;;;160.40;61.80;;;;;;;-4.92;83.19;102462.40;107100;1268;22591;-55
2023/02/09 03:14:11;;;;;;;165.80;66.40;;;;;;;-4.92;83.26;102461.32;106844;1272;22622;-57
2023/02/09 03:16:46;;;;;;;174.70;68.50;;;;;;;-4.92;83.29;102463.23;106832;1265;24327;-57
2023/02/09 03:19:30;;;;;;;183.30;71.40;;;;;;;-4.93;83.17;102464.66;106978;1258;22554;-57
2023/02/09 03:22:08;;;;;;;170.10;64.90;;;;;;;-4.98;83.07;102467.67;106760;1259;25184;-56
2023/02/09 03:24:46;;;;;;;171.20;66.60;;;;;;;-4.99;83.12;102466.57;106880;1268;22679;-58
2023/02/09 03:27:22;;;;;;;168.80;67.30;;;;;;;-5.02;83.06;102460.94;106758;1266;22534;-58
2023/02/09 03:29:57;;;;;;;168.50;66.00;;;;;;;-5.07;82.82;102463.39;106869;1268;22555;-58
2023/02/09 03:32:29;;;;;;;165.40;65.10;;;;;;;-5.12;82.86;102467.46;106822;1265;22717;-58
2023/02/09 03:35:00;;;;;;;159.50;62.90;;;;;;;-5.12;82.93;102464.65;106815;1272;22659;-57
2023/02/09 03:37:31;;;;;;;157.40;62.50;;;;;;;-5.14;82.72;102469.23;106821;1268;26718;-54
2023/02/09 03:40:02;;;;;;;159.10;62.60;;;;;;;-5.19;82.63;102463.58;106782;1257;23025;-56
2023/02/09 03:42:33;;;;;;;162.30;63.20;;;;;;;-5.21;82.68;102462.01;106799;1265;22631;-54
2023/02/09 03:45:06;;;;;;;146.80;59.40;;;;;;;-5.21;82.97;102460.81;106786;1257;24253;-55
2023/02/09 03:47:38;;;;;;;165.60;62.30;;;;;;;-5.21;82.95;102453.27;106862;1263;25884;-57
2023/02/09 03:50:10;;;;;;;148.70;60.60;;;;;;;-5.23;82.95;102452.94;106832;1250;24183;-57
2023/02/09 03:52:41;;;;;;;146.30;63.80;;;;;;;-5.23;82.96;102450.06;106918;1272;25527;-57
2023/02/09 03:55:12;;;;;;;144.10;56.90;;;;;;;-5.23;82.94;102442.27;106906;1265;24359;-61
2023/02/09 03:57:43;;;;;;;150.00;62.70;;;;;;;-5.23;83.08;102450.27;106781;1268;22695;-57
2023/02/09 04:00:16;;;;;;;151.30;62.50;;;;;;;-5.22;83.18;102445.99;106758;1258;22610;-59
2023/02/09 04:02:47;;;;;;;162.30;62.90;;;;;;;-5.23;83.13;102442.30;106888;1268;24223;-57
2023/02/09 04:05:18;;;;;;;145.50;58.70;;;;;;;-5.24;83.20;102436.03;106783;1272;26716;-58
2023/02/09 04:07:49;;;;;;;153.00;58.90;;;;;;;-5.27;83.43;102430.61;106829;1272;23711;-57
2023/02/09 04:10:20;;;;;;;134.20;57.80;;;;;;;-5.26;83.43;102428.53;106833;1271;24247;-55
2023/02/09 04:12:51;;;;;;;157.20;63.60;;;;;;;-5.27;83.48;102420.65;106734;1272;22718;-56
2023/02/09 04:15:22;;;;;;;149.50;62.00;;;;;;;-5.27;83.46;102423.05;106792;1268;26361;-53
2023/02/09 04:17:53;;;;;;;140.20;57.30;;;;;;;-5.27;83.64;102426.93;106790;1269;26500;-57
2023/02/09 04:20:24;;;;;;;139.50;56.50;;;;;;;-5.28;83.52;102420.81;106757;1250;23169;-56
2023/02/09 04:22:55;;;;;;;141.10;59.10;;;;;;;-5.31;83.46;102419.46;106780;1272;22561;-57
2023/02/09 04:25:26;;;;;;;145.40;58.00;;;;;;;-5.33;83.52;102415.52;106777;1258;22633;-56
2023/02/09 04:27:57;;;;;;;137.00;56.80;;;;;;;-5.35;83.59;102422.47;106704;1253;22607;-57
2023/02/09 04:30:28;;;;;;;142.20;58.50;;;;;;;-5.35;83.61;102420.05;106751;1259;22693;-56
2023/02/09 04:32:59;;;;;;;149.10;61.70;;;;;;;-5.35;83.75;102416.05;106723;1259;22705;-57
2023/02/09 04:35:30;;;;;;;146.20;60.90;;;;;;;-5.35;83.79;102412.64;106718;1265;25607;-57
2023/02/09 04:38:01;;;;;;;140.20;56.20;;;;;;;-5.35;83.80;102405.82;106807;1272;26579;-57
2023/02/09 04:40:32;;;;;;;141.80;57.00;;;;;;;-5.35;83.81;102406.59;106817;1258;22836;-56
2023/02/09 04:43:03;;;;;;;141.00;58.80;;;;;;;-5.36;83.82;102405.96;106754;1272;22694;-54
2023/02/09 04:45:33;;;;;;;150.60;59.10;;;;;;;-5.40;83.83;102408.44;106833;1272;22634;-54
2023/02/09 04:48:05;;;;;;;186.90;76.80;;;;;;;-5.44;83.87;102402.61;106838;1268;22750;-57
2023/02/09 04:50:36;;;;;;;171.50;69.00;;;;;;;-5.44;83.99;102396.59;106765;1263;22811;-59
2023/02/09 04:53:07;;;;;;;148.70;61.20;;;;;;;-5.44;84.22;102389.23;106749;1257;25429;-56
2023/02/09 04:55:40;;;;;;;151.80;59.80;;;;;;;-5.44;84.32;102381.41;106758;1271;23027;-58
2023/02/09 05:01:00;;;;;;;;;;;;;;;-5.47;84.35;102382.92;106781;1269;22515;-57
2023/02/09 05:03:31;;;;;;;145.30;56.90;;;;;;;-5.48;84.46;102385.05;106718;1262;22544;-57
2023/02/09 05:06:04;;;;;;;137.60;56.30;;;;;;;-5.48;84.58;102384.74;106899;1265;22759;-56
2023/02/09 05:08:36;;;;;;;140.40;56.60;;;;;;;-5.51;84.56;102389.67;106838;1269;25602;-57
2023/02/09 05:11:07;;;;;;;144.90;57.90;;;;;;;-5.53;84.69;102385.27;106875;1250;22975;-56
2023/02/09 05:13:38;;;;;;;154.40;60.10;;;;;;;-5.55;84.68;102384.02;106876;1272;26074;-54
2023/02/09 05:16:13;;;;;;;136.20;59.60;;;;;;;-5.55;84.68;102382.65;106876;1258;22813;-56
2023/02/09 05:18:45;;;;;;;148.00;60.60;;;;;;;-5.55;84.72;102380.77;106838;1261;22779;-57
2023/02/09 05:21:18;;;;;;;149.40;60.80;;;;;;;-5.56;84.76;102375.09;106895;1268;25591;-56
2023/02/09 05:23:49;;;;;;;147.80;62.10;;;;;;;-5.59;84.85;102371.63;106873;1268;22673;-57
2023/02/09 05:26:21;;;;;;;153.50;62.00;;;;;;;-5.60;84.83;102368.61;106691;1250;27932;-54
2023/02/09 05:28:52;;;;;;;146.40;61.70;;;;;;;-5.60;84.83;102368.85;106687;1272;24191;-55
2023/02/09 05:31:23;;;;;;;145.10;61.10;;;;;;;-5.62;84.82;102368.89;106727;1268;22669;-56
2023/02/09 05:33:55;;;;;;;150.60;60.80;;;;;;;-5.62;84.91;102370.30;106843;1268;22662;-55
2023/02/09 05:36:26;;;;;;;156.00;63.00;;;;;;;-5.62;84.91;102366.20;106759;1262;25593;-57
2023/02/09 05:38:57;;;;;;;145.30;61.50;;;;;;;-5.64;84.94;102363.40;106729;1257;24230;-57
2023/02/09 05:44:17;;;;;;;144.90;58.60;;;;;;;-5.63;84.97;102358.30;106724;1264;24349;-61
2023/02/09 05:46:48;;;;;;;155.90;62.70;;;;;;;-5.63;85.03;102359.09;106835;1272;22829;-56
2023/02/09 05:49:31;;;;;;;153.80;65.80;;;;;;;-5.64;85.07;102353.73;106879;1259;22980;-56
2023/02/09 05:52:16;;;;;;;154.30;61.20;;;;;;;-5.65;85.11;102347.94;106663;1268;24733;-57
2023/02/09 05:54:55;;;;;;;156.80;61.20;;;;;;;-5.65;85.24;102348.64;110657;1250;22375;-57
2023/02/09 05:57:26;;;;;;;154.50;62.50;;;;;;;-5.66;85.22;102346.37;110635;1266;22245;-57
2023/02/09 05:59:57;;;;;;;157.20;64.40;;;;;;;-5.63;85.28;102343.46;109150;1271;24068;-57
2023/02/09 06:02:28;;;;;;;144.20;58.80;;;;;;;-5.62;85.23;102345.38;106769;1266;24179;-57
2023/02/09 06:04:59;;;;;;;158.10;62.80;;;;;;;-5.60;85.26;102348.48;106907;1272;22641;-56
2023/02/09 06:07:30;;;;;;;136.90;57.00;;;;;;;-5.58;85.24;102342.91;107232;1259;23025;-53
2023/02/09 06:10:01;;;;;;;142.40;60.40;;;;;;;-5.56;85.34;102343.93;106777;1269;25415;-58
2023/02/09 06:12:32;;;;;;;141.10;62.50;;;;;;;-5.53;85.29;102344.99;106661;1271;22532;-58
2023/02/09 06:15:04;;;;;;;148.80;60.20;;;;;;;-5.51;85.30;102337.38;106786;1258;22827;-57
2023/02/09 06:17:35;;;;;;;145.90;58.60;;;;;;;-5.52;85.30;102331.22;106913;1271;22795;-56
2023/02/09 06:20:08;;;;;;;139.90;56.90;;;;;;;-5.52;85.34;102324.98;106934;1266;22653;-57
2023/02/09 06:22:40;;;;;;;140.90;58.60;;;;;;;-5.52;85.30;102323.45;106953;1272;24345;-55
2023/02/09 06:25:11;;;;;;;138.00;58.60;;;;;;;-5.52;85.44;102321.98;106772;1257;23060;-53
2023/02/09 06:27:42;;;;;;;151.60;60.00;;;;;;;-5.51;85.49;102327.08;106872;1270;22724;-57
2023/02/09 06:30:15;;;;;;;143.20;55.20;;;;;;;-5.50;85.45;102328.98;107069;1268;25564;-55
2023/02/09 06:32:46;;;;;;;151.80;58.70;;;;;;;-5.51;85.52;102327.08;107083;1265;25492;-56
2023/02/09 06:35:17;;;;;;;155.80;61.10;;;;;;;-5.51;85.46;102330.62;106766;1249;22692;-58
2023/02/09 06:37:48;;;;;;;154.70;63.40;;;;;;;-5.50;85.54;102332.78;107003;1272;25609;-56
2023/02/09 06:40:19;;;;;;;165.60;68.20;;;;;;;-5.49;85.47;102329.25;106779;1271;26497;-56
2023/02/09 06:42:50;;;;;;;152.90;62.20;;;;;;;-5.48;85.53;102325.41;106818;1257;23337;-57
2023/02/09 06:45:22;;;;;;;150.40;62.80;;;;;;;-5.47;85.73;102320.31;106852;1265;24351;-55
2023/02/09 06:47:53;;;;;;;148.00;61.90;;;;;;;-5.45;85.60;102326.66;106711;1268;22706;-58
2023/02/09 06:50:24;;;;;;;152.60;63.10;;;;;;;-5.45;85.59;102326.18;106818;1256;23158;-59
2023/02/09 06:52:56;;;;;;;149.60;61.50;;;;;;;-5.44;85.54;102325.15;106847;1272;22858;-56
2023/02/09 06:55:27;;;;;;;138.00;56.00;;;;;;;-5.41;85.72;102317.17;107037;1266;22969;-54
2023/02/09 06:57:59;;;;;;;129.40;53.30;;;;;;;-5.40;85.77;102315.84;106778;1266;24208;-56
2023/02/09 07:00:30;;;;;;;130.50;53.10;;;;;;;-5.38;85.79;102313.56;106820;1268;22549;-60
2023/02/09 07:03:02;;;;;;;132.10;54.10;;;;;;;-5.37;85.73;102310.18;106753;1268;25518;-56
2023/02/09 07:05:33;;;;;;;125.40;50.40;;;;;;;-5.36;85.84;102302.70;106845;1256;24199;-55
2023/02/09 07:08:04;;;;;;;123.70;53.20;;;;;;;-5.34;85.97;102301.54;106914;1271;22553;-54
2023/02/09 07:10:35;;;;;;;121.90;52.60;;;;;;;-5.33;86.00;102302.36;106852;1266;24390;-56
2023/02/09 07:13:06;;;;;;;140.50;52.40;;;;;;;-5.31;85.92;102297.09;106785;1272;24244;-58
2023/02/09 07:15:37;;;;;;;123.20;54.00;;;;;;;-5.29;86.04;102294.38;106757;1261;22908;-57
2023/02/09 07:18:08;;;;;;;132.10;54.60;;;;;;;-5.25;86.15;102297.66;106776;1262;24449;-57
2023/02/09 07:20:39;;;;;;;133.10;53.50;;;;;;;-5.22;86.19;102295.09;106677;1265;22701;-57
2023/02/09 07:23:10;;;;;;;120.10;50.10;;;;;;;-5.18;86.19;102296.44;106809;1256;22667;-60
2023/02/09 07:25:41;;;;;;;122.20;50.10;;;;;;;-5.13;86.29;102291.10;106832;1271;22685;-54
2023/02/09 07:28:13;;;;;;;125.80;51.90;;;;;;;-5.08;86.31;102287.22;109276;1272;22634;-57
2023/02/09 07:30:44;;;;;;;126.40;51.30;;;;;;;-5.03;86.24;102286.16;106885;1268;22626;-56
2023/02/09 07:33:16;;;;;;;118.50;49.40;;;;;;;-4.97;86.25;102285.14;106833;1272;22573;-54
2023/02/09 07:35:47;;;;;;;107.50;47.80;;;;;;;-4.91;86.22;102280.82;107096;1256;22750;-54
2023/02/09 07:38:18;;;;;;;94.90;38.40;;;;;;;-4.84;86.32;102274.14;106800;1272;22610;-53
2023/02/09 07:40:49;;;;;;;87.20;34.50;;;;;;;-4.76;86.34;102273.35;106840;1272;24856;-58
2023/02/09 07:43:20;;;;;;;67.80;27.30;;;;;;;-4.64;86.46;102266.33;106797;1265;27349;-57
2023/02/09 07:45:51;;;;;;;63.10;22.70;;;;;;;-4.49;86.48;102269.98;106750;1257;22623;-57
2023/02/09 07:48:24;;;;;;;65.80;25.10;;;;;;;-4.33;86.41;102272.20;106773;1265;22572;-55
2023/02/09 07:50:55;;;;;;;68.20;24.90;;;;;;;-4.19;86.12;102270.48;106877;1265;22755;-54
2023/02/09 07:53:26;;;;;;;62.70;23.90;;;;;;;-4.04;85.86;102275.90;106744;1257;25610;-57
2023/02/09 07:55:57;;;;;;;56.70;21.40;;;;;;;-3.90;85.71;102276.29;107073;1272;25553;-58
2023/02/09 07:58:28;;;;;;;61.30;23.10;;;;;;;-3.79;85.68;102274.21;106790;1268;23041;-55
2023/02/09 08:01:06;;;;;;;63.20;23.70;;;;;;;-3.68;85.49;102272.67;106736;1254;24733;-60
2023/02/09 08:03:38;;;;;;;55.70;22.00;;;;;;;-3.58;85.47;102271.34;106945;1268;22539;-60
2023/02/09 08:06:17;;;;;;;58.30;22.30;;;;;;;-3.50;85.36;102266.48;106816;1250;25565;-58
2023/02/09 08:08:49;;;;;;;58.40;23.60;;;;;;;-3.41;85.27;102264.45;106845;1271;22620;-58
2023/02/09 08:11:24;;;;;;;62.60;24.40;;;;;;;-3.34;85.39;102264.55;106780;1272;22579;-56
2023/02/09 08:13:58;;;;;;;64.80;26.50;;;;;;;-3.25;85.02;102260.74;106913;1250;22841;-56
2023/02/09 08:16:33;;;;;;;68.30;24.40;;;;;;;-3.16;85.23;102264.86;107135;1267;22571;-57
2023/02/09 08:19:08;;;;;;;65.60;23.80;;;;;;;-3.09;84.92;102265.59;106791;1268;22579;-58
2023/02/09 08:21:44;;;;;;;75.10;28.00;;;;;;;-3.01;84.87;102265.57;107322;1271;22597;-57
2023/02/09 08:24:17;;;;;;;86.50;32.60;;;;;;;-2.95;84.96;102258.44;106867;1251;23014;-54
2023/02/09 08:26:48;;;;;;;72.80;29.60;;;;;;;-2.89;85.02;102252.45;107067;1250;24328;-55
2023/02/09 08:29:19;;;;;;;71.70;24.90;;;;;;;-2.83;84.97;102248.75;106966;1266;22580;-53
2023/02/09 08:31:50;;;;;;;66.20;23.90;;;;;;;-2.74;85.02;102247.89;106843;1272;26703;-58
2023/02/09 08:34:25;;;;;;;58.60;22.00;;;;;;;-2.66;84.75;102243.23;106994;1268;22564;-55
2023/02/09 08:36:56;;;;;;;57.30;20.10;;;;;;;-2.58;84.60;102238.48;107212;1260;22602;-56
2023/02/09 08:39:27;;;;;;;55.00;19.00;;;;;;;-2.50;84.21;102239.30;106900;1263;22601;-58
2023/02/09 08:41:58;;;;;;;48.00;17.90;;;;;;;-2.41;84.12;102236.06;107070;1267;22552;-56
2023/02/09 08:44:29;;;;;;;55.10;20.00;;;;;;;-2.30;84.17;102237.05;106720;1272;23022;-56
2023/02/09 08:47:00;;;;;;;43.40;15.30;;;;;;;-2.21;83.97;102233.98;107184;1272;22519;-57
2023/02/09 08:49:31;;;;;;;45.00;15.30;;;;;;;-2.10;83.35;102234.40;106780;1271;24365;-60
2023/02/09 08:52:02;;;;;;;45.40;16.60;;;;;;;-1.99;82.97;102231.33;107254;1266;22550;-57
2023/02/09 08:54:33;;;;;;;42.60;16.10;;;;;;;-1.89;82.86;102236.26;106953;1257;22609;-57
2023/02/09 08:57:05;;;;;;;54.60;19.60;;;;;;;-1.82;82.92;102238.02;106969;1256;24285;-61
2023/02/09 08:59:36;;;;;;;59.80;23.70;;;;;;;-1.73;82.77;102245.26;106967;1267;24346;-58
2023/02/09 09:02:07;;;;;;;48.90;18.10;;;;;;;-1.63;82.41;102247.67;106937;1269;26822;-60
2023/02/09 09:04:38;;;;;;;55.30;21.60;;;;;;;-1.51;82.15;102248.63;106882;1272;22587;-58
2023/02/09 09:07:09;;;;;;;49.70;17.20;;;;;;;-1.43;82.39;102254.80;107076;1262;22584;-58
2023/02/09 09:09:40;;;;;;;42.00;14.60;;;;;;;-1.37;82.14;102257.70;106960;1259;22814;-58
2023/02/09 09:12:11;;;;;;;38.20;13.10;;;;;;;-1.32;81.90;102250.41;107062;1262;22555;-60
2023/02/09 09:14:43;;;;;;;39.40;14.30;;;;;;;-1.25;81.22;102253.43;106960;1272;25497;-60
2023/02/09 09:17:14;;;;;;;31.70;12.20;;;;;;;-1.19;81.29;102252.58;106905;1266;24178;-61
2023/02/09 09:19:45;;;;;;;36.80;13.80;;;;;;;-1.08;80.98;102254.81;106785;1272;24356;-58
2023/02/09 09:22:16;;;;;;;37.20;13.70;;;;;;;-0.98;81.01;102250.08;106940;1272;25533;-57
2023/02/09 09:24:47;;;;;;;51.30;18.30;;;;;;;-0.91;80.87;102251.29;106802;1272;22575;-57
2023/02/09 09:27:18;;;;;;;55.70;20.90;;;;;;;-0.84;81.03;102248.48;106822;1272;22583;-56
2023/02/09 09:29:49;;;;;;;52.70;21.70;;;;;;;-0.80;81.30;102243.09;106796;1271;26804;-56
2023/02/09 09:32:23;;;;;;;48.30;19.90;;;;;;;-0.75;81.33;102237.17;106806;1272;23052;-57
2023/02/09 09:34:57;;;;;;;50.70;19.70;;;;;;;-0.69;81.07;102243.29;106795;1272;22571;-56
2023/02/09 09:37:28;;;;;;;58.80;22.40;;;;;;;-0.65;80.80;102246.44;106891;1269;22797;-58
2023/02/09 09:40:15;;;;;;;58.20;23.40;;;;;;;-0.62;81.11;102244.57;106880;1261;25501;-55
2023/02/09 09:49:36;;;;;;;59.90;23.10;;;;;;;-0.38;80.33;102249.14;106787;1272;25316;-58
2023/02/09 09:52:13;;;;;;;54.60;21.90;;;;;;;-0.30;80.42;102248.06;106878;1268;22589;-56
2023/02/09 09:54:45;;;;;;;57.10;21.60;;;;;;;-0.23;80.39;102248.00;107141;1262;22543;-57
2023/02/09 10:00:58;;;;;;;51.30;19.50;;;;;;;-0.09;79.98;102246.23;106554;1276;25478;-55
2023/02/09 10:03:29;;;;;;;54.90;20.60;;;;;;;-0.04;80.11;102246.73;106769;1275;25455;-57
2023/02/09 10:06:11;;;;;;;44.50;16.90;;;;;;;0.00;80.19;102248.23;106565;1274;24400;-55
2023/02/09 10:08:45;;;;;;;57.60;20.40;;;;;;;0.05;79.71;102243.54;106667;1273;22534;-57
2023/02/09 10:11:20;;;;;;;59.60;21.00;;;;;;;0.12;79.69;102245.73;106729;1261;22529;-55
2023/02/09 10:13:52;;;;;;;43.80;18.00;;;;;;;0.18;79.25;102242.80;106563;1276;22682;-56
2023/02/09 10:16:26;;;;;;;46.30;16.20;;;;;;;0.24;79.24;102241.53;106766;1262;24394;-56
2023/02/09 10:19:01;;;;;;;53.30;18.00;;;;;;;0.31;79.10;102239.93;106744;1271;22543;-56
2023/02/09 10:21:35;;;;;;;50.20;19.70;;;;;;;0.37;79.14;102225.61;106664;1262;23914;-55
2023/02/09 10:24:15;;;;;;;42.40;15.70;;;;;;;0.44;79.03;102221.28;106659;1271;24610;-56
2023/02/09 10:27:03;;;;;;;47.80;17.90;;;;;;;0.52;78.81;102213.51;106638;1269;24248;-66
2023/02/09 10:29:35;;;;;;;41.30;15.00;;;;;;;0.60;78.44;102210.99;106671;1260;23560;-55
2023/02/09 10:32:17;;;;;;;40.50;15.70;;;;;;;0.66;78.51;102208.61;106707;1269;22540;-55
2023/02/09 10:34:50;;;;;;;40.50;14.20;;;;;;;0.69;77.70;102200.73;106741;1275;25398;-53
2023/02/09 10:37:26;;;;;;;34.30;13.30;;;;;;;0.73;77.87;102198.05;106706;1272;25453;-54
2023/02/09 10:40:14;;;;;;;39.50;13.30;;;;;;;0.77;77.50;102194.83;106799;1264;22792;-56
2023/02/09 10:42:55;;;;;;;38.00;14.60;;;;;;;0.85;77.36;102193.16;106812;1271;22578;-61
2023/02/09 10:45:28;;;;;;;;;;;;;;;0.91;76.76;102188.94;106930;1262;22523;-56
2023/02/09 10:48:15;;;;;;;37.10;11.50;;;;;;;0.97;76.76;102191.55;106784;1264;22649;-57
2023/02/09 10:50:53;;;;;;;38.80;12.90;;;;;;;1.05;76.41;102183.84;106910;1272;22585;-55
2023/02/09 10:53:27;;;;;;;36.70;12.80;;;;;;;1.12;76.79;102179.40;106845;1272;22536;-58
2023/02/09 10:56:04;;;;;;;42.30;15.10;;;;;;;1.15;76.61;102171.91;106910;1272;24363;-57
2023/02/09 10:58:37;;;;;;;26.10;9.40;;;;;;;1.20;76.74;102175.69;107222;1272;22588;-55
2023/02/09 11:01:19;;;;;;;28.00;10.20;;;;;;;1.25;75.57;102171.60;106830;1269;26894;-56
2023/02/09 11:04:02;;;;;;;28.70;10.60;;;;;;;1.32;75.08;102167.55;106766;1269;25318;-58
2023/02/09 11:06:44;;;;;;;35.50;12.10;;;;;;;1.37;74.60;102164.46;107269;1259;25804;-57
2023/02/09 11:09:19;;;;;;;40.90;12.80;;;;;;;1.40;75.40;102155.40;106837;1269;25470;-57
2023/02/09 11:11:50;;;;;;;40.60;13.30;;;;;;;1.42;75.35;102153.94;106811;1268;24360;-57
2023/02/09 11:14:21;;;;;;;32.90;11.80;;;;;;;1.49;75.47;102152.88;106885;1262;22525;-57
2023/02/09 11:17:18;;;;;;;29.30;10.40;;;;;;;1.53;75.08;102150.97;106882;1272;24230;-56
2023/02/09 11:20:20;;;;;;;27.60;9.10;;;;;;;1.58;74.09;102145.29;106277;1278;27697;-55
2023/02/09 11:23:02;;;;;;;27.70;9.60;;;;;;;1.66;73.76;102135.96;106364;1278;22536;-53
2023/02/09 11:25:37;;;;;;;28.60;10.20;;;;;;;1.71;73.84;102132.95;106431;1274;22536;-55
2023/02/09 11:28:24;;;;;;;31.40;10.40;;;;;;;1.74;73.78;102134.25;106395;1267;25341;-56
2023/02/09 11:31:20;;;;;;;27.40;9.00;;;;;;;1.78;73.47;102138.09;106447;1276;22536;-54
2023/02/09 11:33:59;;;;;;;28.30;9.80;;;;;;;1.81;73.08;102137.10;106386;1268;23212;-56
2023/02/09 11:36:45;;;;;;;31.50;10.60;;;;;;;1.85;73.31;102137.71;106403;1276;23037;-53
2023/02/09 11:39:21;;;;;;;25.20;8.70;;;;;;;1.87;72.82;102138.13;106347;1277;25235;-55
2023/02/09 11:44:53;;;;;;;32.20;10.90;;;;;;;1.92;72.32;102132.27;106240;1273;24215;-57
2023/02/09 11:47:33;;;;;;;34.80;11.70;;;;;;;1.97;72.63;102126.30;106325;1277;22547;-57
2023/02/09 11:50:09;;;;;;;31.00;11.00;;;;;;;2.01;72.56;102121.85;106234;1278;22541;-57
2023/02/09 11:52:49;;;;;;;25.80;10.10;;;;;;;2.05;72.58;102119.94;106382;1278;24203;-57